sensor_id;sensor_type;location;lat;lon;timestamp;P1;durP1;ratioP1;P2;durP2;ratioP2
74168;SDS011;62523;53.336;83.690;2023-05-09T00:00:54;55.03;;;34.95;;
74168;SDS011;62523;53.336;83.690;2023-05-09T00:05:56;66.90;;;37.53;;
74168;SDS011;62523;53.336;83.690;2023-05-09T00:10:58;62.80;;;38.67;;
74168;SDS011;62523;53.336;83.690;2023-05-09T00:16:01;67.07;;;38.53;;
74168;SDS011;62523;53.336;83.690;2023-05-09T00:21:06;61.75;;;36.08;;
74168;SDS011;62523;53.336;83.690;2023-05-09T00:26:09;75.68;;;38.60;;
74168;SDS011;62523;53.336;83.690;2023-05-09T00:31:12;54.22;;;36.38;;
74168;SDS011;62523;53.336;83.690;2023-05-09T00:36:14;62.72;;;37.95;;
74168;SDS011;62523;53.336;83.690;2023-05-09T00:41:16;60.03;;;40.13;;
74168;SDS011;62523;53.336;83.690;2023-05-09T00:46:18;70.18;;;39.25;;
74168;SDS011;62523;53.336;83.690;2023-05-09T00:51:21;68.78;;;43.10;;
74168;SDS011;62523;53.336;83.690;2023-05-09T00:56:24;93.70;;;44.70;;
74168;SDS011;62523;53.336;83.690;2023-05-09T01:01:27;65.93;;;39.70;;
74168;SDS011;62523;53.336;83.690;2023-05-09T01:11:48;87.47;;;48.80;;
74168;SDS011;62523;53.336;83.690;2023-05-09T01:17:12;106.95;;;63.10;;
74168;SDS011;62523;53.336;83.690;2023-05-09T01:22:32;106.43;;;66.28;;
74168;SDS011;62523;53.336;83.690;2023-05-09T01:32:59;114.78;;;69.68;;
74168;SDS011;62523;53.336;83.690;2023-05-09T01:38:09;114.47;;;69.70;;
74168;SDS011;62523;53.336;83.690;2023-05-09T01:43:19;118.40;;;68.43;;
74168;SDS011;62523;53.336;83.690;2023-05-09T01:48:24;120.17;;;71.10;;
74168;SDS011;62523;53.336;83.690;2023-05-09T01:53:29;113.30;;;72.35;;
74168;SDS011;62523;53.336;83.690;2023-05-09T01:58:34;116.10;;;79.55;;
74168;SDS011;62523;53.336;83.690;2023-05-09T02:03:38;140.45;;;82.45;;
74168;SDS011;62523;53.336;83.690;2023-05-09T02:08:43;99.72;;;67.95;;
74168;SDS011;62523;53.336;83.690;2023-05-09T02:13:45;101.60;;;63.63;;
74168;SDS011;62523;53.336;83.690;2023-05-09T02:18:48;115.78;;;66.43;;
74168;SDS011;62523;53.336;83.690;2023-05-09T02:23:50;111.07;;;61.92;;
74168;SDS011;62523;53.336;83.690;2023-05-09T02:28:52;130.90;;;76.43;;
74168;SDS011;62523;53.336;83.690;2023-05-09T02:33:56;97.90;;;62.53;;
74168;SDS011;62523;53.336;83.690;2023-05-09T02:38:59;107.30;;;62.03;;
74168;SDS011;62523;53.336;83.690;2023-05-09T02:44:04;105.65;;;60.55;;
74168;SDS011;62523;53.336;83.690;2023-05-09T02:49:06;121.95;;;64.75;;
74168;SDS011;62523;53.336;83.690;2023-05-09T02:54:09;109.22;;;69.43;;
74168;SDS011;62523;53.336;83.690;2023-05-09T02:59:11;130.70;;;76.82;;
74168;SDS011;62523;53.336;83.690;2023-05-09T03:04:13;131.30;;;71.68;;
74168;SDS011;62523;53.336;83.690;2023-05-09T03:09:15;129.75;;;77.18;;
74168;SDS011;62523;53.336;83.690;2023-05-09T03:14:18;114.57;;;67.53;;
74168;SDS011;62523;53.336;83.690;2023-05-09T03:19:20;133.73;;;79.38;;
74168;SDS011;62523;53.336;83.690;2023-05-09T03:24:26;153.48;;;84.80;;
74168;SDS011;62523;53.336;83.690;2023-05-09T03:29:31;135.18;;;83.30;;
74168;SDS011;62523;53.336;83.690;2023-05-09T03:34:34;160.57;;;88.57;;
74168;SDS011;62523;53.336;83.690;2023-05-09T03:39:36;146.90;;;90.75;;
74168;SDS011;62523;53.336;83.690;2023-05-09T03:44:38;162.57;;;106.40;;
74168;SDS011;62523;53.336;83.690;2023-05-09T03:49:44;131.70;;;89.18;;
74168;SDS011;62523;53.336;83.690;2023-05-09T03:54:47;122.55;;;72.43;;
74168;SDS011;62523;53.336;83.690;2023-05-09T03:59:50;126.63;;;83.32;;
74168;SDS011;62523;53.336;83.690;2023-05-09T04:04:53;158.30;;;100.18;;
74168;SDS011;62523;53.336;83.690;2023-05-09T04:09:57;164.73;;;102.60;;
74168;SDS011;62523;53.336;83.690;2023-05-09T04:14:59;180.83;;;119.10;;
74168;SDS011;62523;53.336;83.690;2023-05-09T04:20:02;190.07;;;133.18;;
74168;SDS011;62523;53.336;83.690;2023-05-09T04:25:05;189.60;;;133.18;;
74168;SDS011;62523;53.336;83.690;2023-05-09T04:30:13;180.75;;;131.32;;
74168;SDS011;62523;53.336;83.690;2023-05-09T04:35:25;183.20;;;123.50;;
74168;SDS011;62523;53.336;83.690;2023-05-09T04:40:28;163.28;;;120.68;;
74168;SDS011;62523;53.336;83.690;2023-05-09T04:45:34;191.55;;;136.35;;
74168;SDS011;62523;53.336;83.690;2023-05-09T04:50:36;199.33;;;112.57;;
74168;SDS011;62523;53.336;83.690;2023-05-09T04:55:38;175.27;;;114.05;;
74168;SDS011;62523;53.336;83.690;2023-05-09T05:00:41;143.95;;;106.95;;
74168;SDS011;62523;53.336;83.690;2023-05-09T05:05:45;167.90;;;116.53;;
74168;SDS011;62523;53.336;83.690;2023-05-09T05:10:47;117.65;;;74.57;;
74168;SDS011;62523;53.336;83.690;2023-05-09T05:15:51;145.55;;;94.95;;
74168;SDS011;62523;53.336;83.690;2023-05-09T05:20:55;116.63;;;74.22;;
74168;SDS011;62523;53.336;83.690;2023-05-09T05:25:57;158.27;;;106.22;;
74168;SDS011;62523;53.336;83.690;2023-05-09T05:31:03;130.25;;;80.55;;
74168;SDS011;62523;53.336;83.690;2023-05-09T05:36:07;127.55;;;88.78;;
74168;SDS011;62523;53.336;83.690;2023-05-09T05:41:09;123.28;;;85.28;;
74168;SDS011;62523;53.336;83.690;2023-05-09T05:46:13;93.20;;;62.92;;
74168;SDS011;62523;53.336;83.690;2023-05-09T05:51:16;108.05;;;72.70;;
74168;SDS011;62523;53.336;83.690;2023-05-09T05:56:19;113.70;;;70.15;;
74168;SDS011;62523;53.336;83.690;2023-05-09T06:01:21;103.30;;;65.30;;
74168;SDS011;62523;53.336;83.690;2023-05-09T06:06:25;113.45;;;70.75;;
74168;SDS011;62523;53.336;83.690;2023-05-09T06:11:29;104.80;;;75.38;;
74168;SDS011;62523;53.336;83.690;2023-05-09T06:16:31;109.63;;;77.65;;
74168;SDS011;62523;53.336;83.690;2023-05-09T06:21:33;114.85;;;73.43;;
74168;SDS011;62523;53.336;83.690;2023-05-09T06:26:35;136.93;;;89.90;;
74168;SDS011;62523;53.336;83.690;2023-05-09T06:31:38;120.85;;;87.53;;
74168;SDS011;62523;53.336;83.690;2023-05-09T06:36:41;112.43;;;79.38;;
74168;SDS011;62523;53.336;83.690;2023-05-09T06:41:43;136.48;;;98.22;;
74168;SDS011;62523;53.336;83.690;2023-05-09T06:46:45;95.63;;;67.87;;
74168;SDS011;62523;53.336;83.690;2023-05-09T06:51:47;112.07;;;73.97;;
74168;SDS011;62523;53.336;83.690;2023-05-09T06:56:49;92.43;;;64.07;;
74168;SDS011;62523;53.336;83.690;2023-05-09T07:01:51;91.78;;;60.78;;
74168;SDS011;62523;53.336;83.690;2023-05-09T07:06:53;101.15;;;65.68;;
74168;SDS011;62523;53.336;83.690;2023-05-09T07:11:55;100.55;;;70.18;;
74168;SDS011;62523;53.336;83.690;2023-05-09T07:16:58;99.43;;;73.35;;
74168;SDS011;62523;53.336;83.690;2023-05-09T07:22:00;102.00;;;69.95;;
74168;SDS011;62523;53.336;83.690;2023-05-09T07:27:03;106.13;;;63.90;;
74168;SDS011;62523;53.336;83.690;2023-05-09T07:32:05;78.03;;;61.72;;
74168;SDS011;62523;53.336;83.690;2023-05-09T07:37:07;126.10;;;78.80;;
74168;SDS011;62523;53.336;83.690;2023-05-09T07:42:09;105.60;;;70.13;;
74168;SDS011;62523;53.336;83.690;2023-05-09T07:47:11;114.37;;;81.53;;
74168;SDS011;62523;53.336;83.690;2023-05-09T07:52:13;101.47;;;76.53;;
74168;SDS011;62523;53.336;83.690;2023-05-09T07:57:17;114.43;;;76.93;;
74168;SDS011;62523;53.336;83.690;2023-05-09T08:02:19;121.07;;;77.00;;
74168;SDS011;62523;53.336;83.690;2023-05-09T08:07:21;111.32;;;78.65;;
74168;SDS011;62523;53.336;83.690;2023-05-09T08:12:23;115.72;;;82.50;;
74168;SDS011;62523;53.336;83.690;2023-05-09T08:17:26;118.35;;;82.10;;
74168;SDS011;62523;53.336;83.690;2023-05-09T08:27:39;112.63;;;83.07;;
74168;SDS011;62523;53.336;83.690;2023-05-09T08:32:41;125.07;;;80.25;;
74168;SDS011;62523;53.336;83.690;2023-05-09T08:37:43;123.63;;;79.55;;
74168;SDS011;62523;53.336;83.690;2023-05-09T08:42:48;120.03;;;83.25;;
74168;SDS011;62523;53.336;83.690;2023-05-09T08:47:51;109.07;;;78.15;;
74168;SDS011;62523;53.336;83.690;2023-05-09T08:52:54;109.03;;;74.75;;
74168;SDS011;62523;53.336;83.690;2023-05-09T08:57:57;108.65;;;73.93;;
74168;SDS011;62523;53.336;83.690;2023-05-09T09:03:00;101.03;;;69.72;;
74168;SDS011;62523;53.336;83.690;2023-05-09T09:08:05;92.20;;;69.43;;
74168;SDS011;62523;53.336;83.690;2023-05-09T09:13:08;99.22;;;65.43;;
74168;SDS011;62523;53.336;83.690;2023-05-09T09:18:15;103.47;;;69.15;;
74168;SDS011;62523;53.336;83.690;2023-05-09T09:23:29;104.93;;;61.00;;
74168;SDS011;62523;53.336;83.690;2023-05-09T09:28:34;96.78;;;70.90;;
74168;SDS011;62523;53.336;83.690;2023-05-09T09:33:36;114.43;;;72.03;;
74168;SDS011;62523;53.336;83.690;2023-05-09T09:38:39;119.03;;;70.17;;
74168;SDS011;62523;53.336;83.690;2023-05-09T09:43:44;116.75;;;73.28;;
74168;SDS011;62523;53.336;83.690;2023-05-09T09:48:54;111.80;;;70.45;;
74168;SDS011;62523;53.336;83.690;2023-05-09T09:53:57;116.10;;;70.45;;
74168;SDS011;62523;53.336;83.690;2023-05-09T09:59:16;118.35;;;78.75;;
74168;SDS011;62523;53.336;83.690;2023-05-09T10:04:19;136.33;;;90.00;;
74168;SDS011;62523;53.336;83.690;2023-05-09T10:09:22;112.13;;;73.53;;
74168;SDS011;62523;53.336;83.690;2023-05-09T10:14:24;132.25;;;83.25;;
74168;SDS011;62523;53.336;83.690;2023-05-09T10:19:28;134.48;;;89.10;;
74168;SDS011;62523;53.336;83.690;2023-05-09T10:30:08;126.57;;;84.85;;
74168;SDS011;62523;53.336;83.690;2023-05-09T10:35:14;117.45;;;84.93;;
74168;SDS011;62523;53.336;83.690;2023-05-09T10:40:25;112.37;;;79.92;;
74168;SDS011;62523;53.336;83.690;2023-05-09T10:45:28;109.78;;;75.35;;
74168;SDS011;62523;53.336;83.690;2023-05-09T10:50:36;100.80;;;79.63;;
74168;SDS011;62523;53.336;83.690;2023-05-09T10:55:47;120.25;;;77.28;;
74168;SDS011;62523;53.336;83.690;2023-05-09T11:00:59;81.87;;;59.47;;
74168;SDS011;62523;53.336;83.690;2023-05-09T11:06:03;116.82;;;71.32;;
74168;SDS011;62523;53.336;83.690;2023-05-09T11:11:09;126.55;;;74.82;;
74168;SDS011;62523;53.336;83.690;2023-05-09T11:16:25;114.88;;;76.97;;
74168;SDS011;62523;53.336;83.690;2023-05-09T11:21:28;68.85;;;49.13;;
74168;SDS011;62523;53.336;83.690;2023-05-09T11:26:30;76.78;;;52.13;;
74168;SDS011;62523;53.336;83.690;2023-05-09T11:31:33;81.13;;;44.88;;
74168;SDS011;62523;53.336;83.690;2023-05-09T11:36:35;104.50;;;65.40;;
74168;SDS011;62523;53.336;83.690;2023-05-09T11:41:46;61.60;;;42.45;;
74168;SDS011;62523;53.336;83.690;2023-05-09T11:46:49;65.10;;;44.00;;
74168;SDS011;62523;53.336;83.690;2023-05-09T11:51:51;65.40;;;45.70;;
74168;SDS011;62523;53.336;83.690;2023-05-09T11:56:54;60.40;;;35.93;;
74168;SDS011;62523;53.336;83.690;2023-05-09T12:02:01;61.03;;;35.25;;
74168;SDS011;62523;53.336;83.690;2023-05-09T12:07:07;42.25;;;25.75;;
74168;SDS011;62523;53.336;83.690;2023-05-09T12:12:12;52.35;;;33.58;;
74168;SDS011;62523;53.336;83.690;2023-05-09T12:17:15;66.27;;;40.57;;
74168;SDS011;62523;53.336;83.690;2023-05-09T12:22:17;55.35;;;28.10;;
74168;SDS011;62523;53.336;83.690;2023-05-09T12:27:20;47.08;;;27.83;;
74168;SDS011;62523;53.336;83.690;2023-05-09T12:32:23;41.67;;;32.30;;
74168;SDS011;62523;53.336;83.690;2023-05-09T12:37:25;53.03;;;27.05;;
74168;SDS011;62523;53.336;83.690;2023-05-09T12:42:27;49.05;;;22.20;;
74168;SDS011;62523;53.336;83.690;2023-05-09T12:47:30;55.53;;;29.10;;
74168;SDS011;62523;53.336;83.690;2023-05-09T12:52:37;65.40;;;30.33;;
74168;SDS011;62523;53.336;83.690;2023-05-09T12:57:40;67.18;;;36.10;;
74168;SDS011;62523;53.336;83.690;2023-05-09T13:02:47;78.32;;;35.72;;
74168;SDS011;62523;53.336;83.690;2023-05-09T13:07:51;85.40;;;37.40;;
74168;SDS011;62523;53.336;83.690;2023-05-09T13:12:57;99.35;;;52.00;;
74168;SDS011;62523;53.336;83.690;2023-05-09T13:17:59;98.65;;;63.17;;
74168;SDS011;62523;53.336;83.690;2023-05-09T13:23:01;67.88;;;48.55;;
74168;SDS011;62523;53.336;83.690;2023-05-09T13:28:07;108.27;;;64.70;;
74168;SDS011;62523;53.336;83.690;2023-05-09T13:33:09;127.05;;;79.45;;
74168;SDS011;62523;53.336;83.690;2023-05-09T13:38:14;100.40;;;65.90;;
74168;SDS011;62523;53.336;83.690;2023-05-09T13:43:16;111.95;;;63.00;;
74168;SDS011;62523;53.336;83.690;2023-05-09T13:48:18;98.40;;;66.68;;
74168;SDS011;62523;53.336;83.690;2023-05-09T13:53:20;97.70;;;70.22;;
74168;SDS011;62523;53.336;83.690;2023-05-09T13:58:22;104.55;;;64.45;;
74168;SDS011;62523;53.336;83.690;2023-05-09T14:03:24;94.15;;;61.30;;
74168;SDS011;62523;53.336;83.690;2023-05-09T14:08:26;82.38;;;58.85;;
74168;SDS011;62523;53.336;83.690;2023-05-09T14:13:31;64.43;;;39.40;;
74168;SDS011;62523;53.336;83.690;2023-05-09T14:18:33;81.05;;;47.35;;
74168;SDS011;62523;53.336;83.690;2023-05-09T14:23:36;69.05;;;43.70;;
74168;SDS011;62523;53.336;83.690;2023-05-09T14:28:38;63.55;;;36.40;;
74168;SDS011;62523;53.336;83.690;2023-05-09T14:33:41;52.33;;;30.95;;
74168;SDS011;62523;53.336;83.690;2023-05-09T14:38:43;61.20;;;33.17;;
74168;SDS011;62523;53.336;83.690;2023-05-09T14:43:47;63.77;;;27.33;;
74168;SDS011;62523;53.336;83.690;2023-05-09T14:48:50;40.67;;;23.75;;
74168;SDS011;62523;53.336;83.690;2023-05-09T14:53:53;37.85;;;24.70;;
74168;SDS011;62523;53.336;83.690;2023-05-09T14:58:55;38.05;;;21.55;;
74168;SDS011;62523;53.336;83.690;2023-05-09T15:03:57;40.97;;;21.75;;
74168;SDS011;62523;53.336;83.690;2023-05-09T15:09:00;53.08;;;22.45;;
74168;SDS011;62523;53.336;83.690;2023-05-09T15:14:03;44.53;;;26.52;;
74168;SDS011;62523;53.336;83.690;2023-05-09T15:19:08;35.63;;;23.60;;
74168;SDS011;62523;53.336;83.690;2023-05-09T15:24:10;37.93;;;21.73;;
74168;SDS011;62523;53.336;83.690;2023-05-09T15:29:12;52.03;;;23.98;;
74168;SDS011;62523;53.336;83.690;2023-05-09T15:34:15;33.70;;;19.50;;
74168;SDS011;62523;53.336;83.690;2023-05-09T15:39:17;42.00;;;21.30;;
74168;SDS011;62523;53.336;83.690;2023-05-09T15:44:19;37.03;;;20.95;;
74168;SDS011;62523;53.336;83.690;2023-05-09T15:49:24;48.75;;;22.17;;
74168;SDS011;62523;53.336;83.690;2023-05-09T15:54:26;33.40;;;20.92;;
74168;SDS011;62523;53.336;83.690;2023-05-09T15:59:29;42.45;;;21.65;;
74168;SDS011;62523;53.336;83.690;2023-05-09T16:04:31;36.33;;;20.80;;
74168;SDS011;62523;53.336;83.690;2023-05-09T16:09:34;48.03;;;22.55;;
74168;SDS011;62523;53.336;83.690;2023-05-09T16:14:36;39.40;;;23.45;;
74168;SDS011;62523;53.336;83.690;2023-05-09T16:19:38;37.85;;;25.10;;
74168;SDS011;62523;53.336;83.690;2023-05-09T16:24:40;49.20;;;25.13;;
74168;SDS011;62523;53.336;83.690;2023-05-09T16:29:44;37.22;;;21.73;;
74168;SDS011;62523;53.336;83.690;2023-05-09T16:34:46;39.60;;;23.27;;
74168;SDS011;62523;53.336;83.690;2023-05-09T16:39:48;42.10;;;23.40;;
74168;SDS011;62523;53.336;83.690;2023-05-09T16:44:50;40.03;;;23.40;;
74168;SDS011;62523;53.336;83.690;2023-05-09T16:49:52;37.42;;;22.52;;
74168;SDS011;62523;53.336;83.690;2023-05-09T16:54:54;44.40;;;22.92;;
74168;SDS011;62523;53.336;83.690;2023-05-09T16:59:59;54.38;;;29.00;;
74168;SDS011;62523;53.336;83.690;2023-05-09T17:05:02;36.22;;;26.63;;
74168;SDS011;62523;53.336;83.690;2023-05-09T17:10:05;36.60;;;24.47;;
74168;SDS011;62523;53.336;83.690;2023-05-09T17:15:07;41.95;;;25.02;;
74168;SDS011;62523;53.336;83.690;2023-05-09T17:20:11;37.17;;;24.60;;
74168;SDS011;62523;53.336;83.690;2023-05-09T17:25:13;41.42;;;22.98;;
74168;SDS011;62523;53.336;83.690;2023-05-09T17:30:25;46.56;;;28.97;;
74168;SDS011;62523;53.336;83.690;2023-05-09T17:35:27;49.60;;;26.60;;
74168;SDS011;62523;53.336;83.690;2023-05-09T17:40:30;51.50;;;31.70;;
74168;SDS011;62523;53.336;83.690;2023-05-09T17:45:32;34.27;;;25.40;;
74168;SDS011;62523;53.336;83.690;2023-05-09T17:50:34;26.75;;;20.45;;
74168;SDS011;62523;53.336;83.690;2023-05-09T17:55:36;31.45;;;24.35;;
74168;SDS011;62523;53.336;83.690;2023-05-09T18:00:39;37.25;;;23.42;;
74168;SDS011;62523;53.336;83.690;2023-05-09T18:05:43;44.20;;;27.77;;
74168;SDS011;62523;53.336;83.690;2023-05-09T18:10:45;37.87;;;25.80;;
74168;SDS011;62523;53.336;83.690;2023-05-09T18:15:47;36.17;;;21.52;;
74168;SDS011;62523;53.336;83.690;2023-05-09T18:20:49;38.00;;;21.83;;
74168;SDS011;62523;53.336;83.690;2023-05-09T18:25:52;35.65;;;25.77;;
74168;SDS011;62523;53.336;83.690;2023-05-09T18:30:59;33.58;;;22.90;;
74168;SDS011;62523;53.336;83.690;2023-05-09T18:36:01;42.28;;;23.50;;
74168;SDS011;62523;53.336;83.690;2023-05-09T18:41:05;31.10;;;21.15;;
74168;SDS011;62523;53.336;83.690;2023-05-09T18:46:14;43.05;;;28.85;;
74168;SDS011;62523;53.336;83.690;2023-05-09T18:51:18;34.65;;;25.08;;
74168;SDS011;62523;53.336;83.690;2023-05-09T18:56:21;30.08;;;21.17;;
74168;SDS011;62523;53.336;83.690;2023-05-09T19:01:23;36.28;;;20.83;;
74168;SDS011;62523;53.336;83.690;2023-05-09T19:06:25;34.13;;;20.60;;
74168;SDS011;62523;53.336;83.690;2023-05-09T19:11:29;36.20;;;25.65;;
74168;SDS011;62523;53.336;83.690;2023-05-09T19:16:31;34.22;;;21.77;;
74168;SDS011;62523;53.336;83.690;2023-05-09T19:21:33;42.35;;;21.60;;
74168;SDS011;62523;53.336;83.690;2023-05-09T19:26:36;34.97;;;22.48;;
74168;SDS011;62523;53.336;83.690;2023-05-09T19:31:38;39.05;;;23.70;;
74168;SDS011;62523;53.336;83.690;2023-05-09T19:36:40;33.40;;;20.90;;
74168;SDS011;62523;53.336;83.690;2023-05-09T19:41:42;30.58;;;22.63;;
74168;SDS011;62523;53.336;83.690;2023-05-09T19:46:44;48.53;;;26.50;;
74168;SDS011;62523;53.336;83.690;2023-05-09T19:51:47;35.47;;;22.90;;
74168;SDS011;62523;53.336;83.690;2023-05-09T19:56:49;36.40;;;21.83;;
74168;SDS011;62523;53.336;83.690;2023-05-09T20:01:51;52.90;;;22.13;;
74168;SDS011;62523;53.336;83.690;2023-05-09T20:06:53;26.60;;;19.25;;
74168;SDS011;62523;53.336;83.690;2023-05-09T20:11:55;30.20;;;21.40;;
74168;SDS011;62523;53.336;83.690;2023-05-09T20:16:57;38.92;;;28.30;;
74168;SDS011;62523;53.336;83.690;2023-05-09T20:21:59;36.67;;;23.80;;
74168;SDS011;62523;53.336;83.690;2023-05-09T20:27:02;29.85;;;20.38;;
74168;SDS011;62523;53.336;83.690;2023-05-09T20:32:04;33.90;;;23.50;;
74168;SDS011;62523;53.336;83.690;2023-05-09T20:37:06;33.83;;;22.13;;
74168;SDS011;62523;53.336;83.690;2023-05-09T20:42:09;39.33;;;26.23;;
74168;SDS011;62523;53.336;83.690;2023-05-09T20:47:11;31.77;;;20.58;;
74168;SDS011;62523;53.336;83.690;2023-05-09T20:52:13;32.67;;;22.20;;
74168;SDS011;62523;53.336;83.690;2023-05-09T20:57:15;28.27;;;21.33;;
74168;SDS011;62523;53.336;83.690;2023-05-09T21:02:17;28.67;;;21.30;;
74168;SDS011;62523;53.336;83.690;2023-05-09T21:07:20;43.25;;;29.17;;
74168;SDS011;62523;53.336;83.690;2023-05-09T21:12:22;38.88;;;27.77;;
74168;SDS011;62523;53.336;83.690;2023-05-09T21:17:24;38.33;;;25.80;;
74168;SDS011;62523;53.336;83.690;2023-05-09T21:22:26;29.90;;;22.88;;
74168;SDS011;62523;53.336;83.690;2023-05-09T21:27:29;36.83;;;24.70;;
74168;SDS011;62523;53.336;83.690;2023-05-09T21:32:31;36.33;;;22.52;;
74168;SDS011;62523;53.336;83.690;2023-05-09T21:37:33;37.97;;;26.13;;
74168;SDS011;62523;53.336;83.690;2023-05-09T21:42:35;38.30;;;22.38;;
74168;SDS011;62523;53.336;83.690;2023-05-09T21:47:38;33.47;;;25.55;;
74168;SDS011;62523;53.336;83.690;2023-05-09T21:52:40;40.60;;;24.85;;
74168;SDS011;62523;53.336;83.690;2023-05-09T21:57:42;37.20;;;22.67;;
74168;SDS011;62523;53.336;83.690;2023-05-09T22:02:44;32.13;;;21.37;;
74168;SDS011;62523;53.336;83.690;2023-05-09T22:07:47;34.83;;;18.50;;
74168;SDS011;62523;53.336;83.690;2023-05-09T22:12:49;33.60;;;23.67;;
74168;SDS011;62523;53.336;83.690;2023-05-09T22:17:51;38.58;;;31.08;;
74168;SDS011;62523;53.336;83.690;2023-05-09T22:22:53;25.75;;;21.20;;
74168;SDS011;62523;53.336;83.690;2023-05-09T22:27:55;32.80;;;24.02;;
74168;SDS011;62523;53.336;83.690;2023-05-09T22:33:00;31.58;;;24.58;;
74168;SDS011;62523;53.336;83.690;2023-05-09T22:38:02;31.58;;;21.63;;
74168;SDS011;62523;53.336;83.690;2023-05-09T22:43:04;39.20;;;22.80;;
74168;SDS011;62523;53.336;83.690;2023-05-09T22:48:06;36.10;;;23.92;;
74168;SDS011;62523;53.336;83.690;2023-05-09T22:53:09;36.67;;;25.75;;
74168;SDS011;62523;53.336;83.690;2023-05-09T22:58:12;34.40;;;24.48;;
74168;SDS011;62523;53.336;83.690;2023-05-09T23:03:14;35.80;;;23.92;;
74168;SDS011;62523;53.336;83.690;2023-05-09T23:08:16;32.47;;;24.77;;
74168;SDS011;62523;53.336;83.690;2023-05-09T23:13:18;39.53;;;27.20;;
74168;SDS011;62523;53.336;83.690;2023-05-09T23:18:20;32.10;;;24.60;;
74168;SDS011;62523;53.336;83.690;2023-05-09T23:23:24;42.28;;;25.90;;
74168;SDS011;62523;53.336;83.690;2023-05-09T23:28:26;33.80;;;24.38;;
74168;SDS011;62523;53.336;83.690;2023-05-09T23:33:28;36.13;;;24.27;;
74168;SDS011;62523;53.336;83.690;2023-05-09T23:38:30;34.58;;;24.00;;
74168;SDS011;62523;53.336;83.690;2023-05-09T23:43:32;34.45;;;24.85;;
74168;SDS011;62523;53.336;83.690;2023-05-09T23:48:34;30.85;;;24.05;;
74168;SDS011;62523;53.336;83.690;2023-05-09T23:53:36;32.53;;;24.30;;
74168;SDS011;62523;53.336;83.690;2023-05-09T23:58:38;37.17;;;24.88;;
